Time;durP1;ratioP1;P1;durP2;ratioP2;P2;SDS_P1;SDS_P2;PMS_P1;PMS_P2;Temp;Humidity;BMP_temperature;BMP_pressure;BME280_temperature;BME280_humidity;BME280_pressure;Samples;Min_cycle;Max_cycle;Signal;HPM_P1;HPM_P2
2022/09/21 00:00:05;;;;;;;6.65;3.90;;;;;;;13.71;100.00;101847.00;4966829;28;20606;-77
2022/09/21 00:02:30;;;;;;;6.07;3.88;;;;;;;13.69;100.00;101840.06;5019877;28;20042;-77
2022/09/21 00:04:56;;;;;;;6.55;4.00;;;;;;;13.75;100.00;101859.13;5004813;28;20546;-77
2022/09/21 00:07:22;;;;;;;6.18;3.90;;;;;;;13.76;100.00;101849.16;4981845;28;21636;-77
2022/09/21 00:09:48;;;;;;;7.10;4.00;;;;;;;13.75;100.00;101852.91;4989719;28;20476;-78
2022/09/21 00:12:14;;;;;;;5.32;3.92;;;;;;;13.71;100.00;101846.16;5003532;28;20041;-76
2022/09/21 00:14:39;;;;;;;5.32;3.53;;;;;;;13.66;100.00;101835.00;5021040;28;20037;-77
2022/09/21 00:17:05;;;;;;;4.68;3.45;;;;;;;13.59;100.00;101838.38;4971656;28;21062;-77
2022/09/21 00:19:33;;;;;;;4.97;3.25;;;;;;;13.57;100.00;101839.56;5000572;28;20034;-77
2022/09/21 00:22:02;;;;;;;5.20;3.10;;;;;;;13.54;100.00;101829.09;4972639;28;20040;-77
2022/09/21 00:24:27;;;;;;;4.35;3.00;;;;;;;13.55;100.00;101837.03;4970662;28;20033;-77
2022/09/21 00:26:53;;;;;;;4.43;2.75;;;;;;;13.50;100.00;101834.00;4971579;28;20042;-76
2022/09/21 00:29:21;;;;;;;6.50;3.10;;;;;;;13.49;100.00;101839.56;4990244;28;20046;-77
2022/09/21 00:31:47;;;;;;;5.03;2.92;;;;;;;13.45;100.00;101830.94;5004745;28;20041;-77
2022/09/21 00:34:12;;;;;;;9.43;4.30;;;;;;;13.44;100.00;101837.34;4987319;28;20038;-76
2022/09/21 00:36:38;;;;;;;5.38;3.45;;;;;;;13.39;100.00;101827.06;4970803;28;20042;-76
2022/09/21 00:39:04;;;;;;;4.38;2.75;;;;;;;13.37;100.00;101818.28;5002374;28;20034;-75
2022/09/21 00:41:31;;;;;;;5.20;3.00;;;;;;;13.33;100.00;101816.09;4972521;28;20060;-75
2022/09/21 00:44:15;;;;;;;5.45;2.83;;;;;;;13.33;100.00;101821.47;4988275;28;20199;-75
2022/09/21 00:46:41;;;;;;;3.20;2.67;;;;;;;13.20;100.00;101805.72;5012890;28;20034;-75
2022/09/21 00:49:07;;;;;;;6.53;2.67;;;;;;;13.29;100.00;101820.97;5001678;28;20030;-75
2022/09/21 00:51:34;;;;;;;4.38;2.70;;;;;;;13.28;100.00;101823.84;4976000;28;20042;-75
2022/09/21 00:54:06;;;;;;;4.43;2.75;;;;;;;13.22;100.00;101817.22;4976688;28;20048;-75
2022/09/21 00:56:33;;;;;;;6.13;2.83;;;;;;;13.21;100.00;101815.53;4983452;28;20717;-75
2022/09/21 00:58:58;;;;;;;4.40;2.90;;;;;;;13.17;100.00;101815.00;5001798;28;20052;-75
2022/09/21 01:01:24;;;;;;;5.43;3.13;;;;;;;13.16;100.00;101807.94;5002394;28;20030;-75
2022/09/21 01:03:51;;;;;;;5.32;2.78;;;;;;;13.13;100.00;101815.53;4984118;28;20452;-75
2022/09/21 01:06:18;;;;;;;4.18;2.88;;;;;;;13.12;100.00;101816.53;5005580;28;20164;-75
2022/09/21 01:08:46;;;;;;;4.10;3.00;;;;;;;13.11;100.00;101815.69;4982367;28;20038;-75
2022/09/21 01:11:27;;;;;;;5.35;3.00;;;;;;;13.11;100.00;101820.25;4987372;28;20064;-75
2022/09/21 01:14:01;;;;;;;5.20;3.35;;;;;;;13.09;100.00;101817.72;5002995;28;20058;-76
2022/09/21 01:16:49;;;;;;;5.22;3.58;;;;;;;13.07;100.00;101816.19;5001704;28;20064;-75
2022/09/21 01:19:20;;;;;;;6.65;3.60;;;;;;;13.05;100.00;101815.53;5006627;28;20045;-74
2022/09/21 01:22:03;;;;;;;6.13;3.53;;;;;;;13.01;100.00;101808.75;5006019;28;20053;-77
2022/09/21 01:24:45;;;;;;;6.55;3.80;;;;;;;13.02;100.00;101821.22;5011299;28;20144;-75
2022/09/21 01:27:56;;;;;;;4.80;3.55;;;;;;;13.00;100.00;101820.56;5007851;28;20042;-77
2022/09/21 01:30:22;;;;;;;5.53;3.70;;;;;;;12.97;100.00;101822.59;4990065;28;20034;-74
2022/09/21 01:33:09;;;;;;;5.75;4.15;;;;;;;12.88;100.00;101809.22;4991647;28;20435;-77
2022/09/21 01:35:43;;;;;;;5.72;3.92;;;;;;;12.93;100.00;101821.22;4994740;28;20077;-76
2022/09/21 01:38:19;;;;;;;6.65;4.05;;;;;;;12.91;100.00;101817.88;4992277;28;20026;-77
2022/09/21 01:40:59;;;;;;;8.10;4.13;;;;;;;12.90;100.00;101818.84;5002713;28;20045;-76
2022/09/21 01:43:33;;;;;;;8.38;3.67;;;;;;;12.87;100.00;101811.09;4989963;28;20400;-77
2022/09/21 01:46:03;;;;;;;8.48;3.80;;;;;;;12.85;100.00;101813.09;4990628;28;20093;-78
2022/09/21 01:48:31;;;;;;;4.63;3.60;;;;;;;12.82;100.00;101809.91;4973043;28;20065;-76
2022/09/21 01:50:58;;;;;;;15.82;5.18;;;;;;;12.81;100.00;101806.38;4970044;28;20172;-78
2022/09/21 01:53:31;;;;;;;6.25;4.13;;;;;;;12.72;100.00;101785.75;5007522;28;20056;-76
2022/09/21 01:56:10;;;;;;;5.68;4.10;;;;;;;12.80;100.00;101809.22;4970788;28;20180;-77
2022/09/21 01:58:44;;;;;;;6.22;3.88;;;;;;;12.76;100.00;101789.81;4970949;28;20498;-76
2022/09/21 02:01:14;;;;;;;6.13;4.43;;;;;;;12.74;100.00;101789.13;4989541;28;20165;-77
2022/09/21 02:03:50;;;;;;;4.38;3.63;;;;;;;12.75;100.00;101788.09;5006078;28;20029;-76
2022/09/21 02:06:17;;;;;;;6.90;4.10;;;;;;;12.74;100.00;101787.28;4976223;28;20037;-76
2022/09/21 02:08:42;;;;;;;8.95;4.28;;;;;;;12.71;100.00;101773.28;5005938;28;20038;-76
2022/09/21 02:11:11;;;;;;;8.25;4.15;;;;;;;12.68;100.00;101774.44;4999013;28;20390;-77
2022/09/21 02:13:40;;;;;;;5.85;4.20;;;;;;;12.64;100.00;101773.06;4979454;28;20041;-76
2022/09/21 02:16:05;;;;;;;5.65;3.55;;;;;;;12.61;100.00;101764.47;5007570;28;20049;-76
2022/09/21 02:18:40;;;;;;;5.35;3.80;;;;;;;12.58;100.00;101768.34;4999405;28;20067;-76
2022/09/21 02:21:17;;;;;;;6.20;3.75;;;;;;;12.54;100.00;101762.44;4984364;28;20038;-76
2022/09/21 02:24:14;;;;;;;5.32;3.90;;;;;;;12.51;100.00;101762.75;4988861;28;20045;-76
2022/09/21 02:26:45;;;;;;;6.65;4.20;;;;;;;12.49;100.00;101754.00;4993592;28;20038;-76
2022/09/21 02:29:19;;;;;;;6.97;4.07;;;;;;;12.50;100.00;101757.53;5006924;28;20030;-76
2022/09/21 02:31:54;;;;;;;5.88;3.58;;;;;;;12.43;100.00;101751.94;4993615;28;20037;-76
2022/09/21 02:34:46;;;;;;;5.65;3.55;;;;;;;12.37;100.00;101760.69;4989767;28;20034;-76
2022/09/21 02:37:18;;;;;;;5.67;4.03;;;;;;;12.26;100.00;101764.53;4979682;28;20036;-76
2022/09/21 02:39:57;;;;;;;6.47;3.80;;;;;;;12.17;100.00;101770.03;5008746;28;20408;-75
2022/09/21 02:42:28;;;;;;;4.13;3.25;;;;;;;12.08;100.00;101771.84;4985797;28;20058;-77
2022/09/21 02:45:00;;;;;;;4.55;3.65;;;;;;;11.82;100.00;101761.91;4972222;28;20045;-76
2022/09/21 02:47:46;;;;;;;5.55;3.70;;;;;;;11.68;100.00;101772.44;4998548;28;20400;-76
2022/09/21 02:50:19;;;;;;;7.80;3.67;;;;;;;11.23;100.00;101748.19;5003210;28;20026;-76
2022/09/21 02:52:44;;;;;;;8.47;3.90;;;;;;;11.15;100.00;101782.28;4985007;28;20042;-76
2022/09/21 02:55:12;;;;;;;5.10;3.47;;;;;;;10.99;100.00;101770.38;4976296;28;20033;-76
2022/09/21 02:57:38;;;;;;;6.13;3.75;;;;;;;10.82;100.00;101768.50;5005202;28;20109;-76
2022/09/21 03:00:05;;;;;;;4.65;3.65;;;;;;;10.67;100.00;101775.44;4972365;28;20139;-76
2022/09/21 03:02:39;;;;;;;5.68;3.50;;;;;;;10.48;100.00;101765.66;4972186;28;20217;-76
2022/09/21 03:05:06;;;;;;;4.50;2.95;;;;;;;10.36;100.00;101772.22;4985998;28;20022;-76
2022/09/21 03:07:34;;;;;;;3.92;3.00;;;;;;;10.41;100.00;101769.91;4974901;28;20043;-76
2022/09/21 03:10:00;;;;;;;7.03;4.03;;;;;;;10.35;100.00;101760.63;4991523;28;20069;-76
2022/09/21 03:12:26;;;;;;;6.65;3.58;;;;;;;10.39;100.00;101769.22;5000903;28;20060;-76
2022/09/21 03:14:52;;;;;;;4.85;3.47;;;;;;;10.35;100.00;101774.06;5004999;28;20041;-76
2022/09/21 03:17:18;;;;;;;5.68;3.53;;;;;;;10.29;100.00;101771.94;4975119;28;20140;-76
2022/09/21 03:19:43;;;;;;;6.40;3.50;;;;;;;10.17;100.00;101752.47;4988016;28;20040;-76
2022/09/21 03:22:09;;;;;;;7.25;3.45;;;;;;;10.27;100.00;101763.19;4988497;28;20037;-76
2022/09/21 03:24:46;;;;;;;5.38;3.40;;;;;;;10.16;100.00;101757.97;4969397;28;20303;-76
2022/09/21 03:27:18;;;;;;;4.25;3.00;;;;;;;10.13;100.00;101757.31;5004973;28;20042;-76
2022/09/21 03:29:45;;;;;;;4.60;3.10;;;;;;;10.18;100.00;101759.53;4990100;28;20061;-77
2022/09/21 03:32:12;;;;;;;6.28;3.47;;;;;;;10.24;100.00;101755.38;4966500;28;20401;-77
2022/09/21 03:34:38;;;;;;;5.70;3.55;;;;;;;10.20;100.00;101751.31;5007459;28;20465;-76
2022/09/21 03:37:05;;;;;;;4.93;3.15;;;;;;;10.27;100.00;101757.81;4985268;28;20041;-76
2022/09/21 03:39:30;;;;;;;8.63;3.78;;;;;;;10.32;100.00;101750.16;4991330;28;20037;-76
2022/09/21 03:41:56;;;;;;;5.40;3.13;;;;;;;10.36;100.00;101745.31;4969743;28;20038;-76
2022/09/21 03:44:23;;;;;;;6.57;3.50;;;;;;;10.38;100.00;101744.19;4970389;28;20373;-76
2022/09/21 03:46:49;;;;;;;5.47;3.00;;;;;;;10.33;100.00;101743.78;4969284;28;20034;-76
2022/09/21 03:49:15;;;;;;;5.47;3.38;;;;;;;10.29;100.00;101739.69;4990332;28;20049;-76
2022/09/21 03:51:41;;;;;;;8.13;3.50;;;;;;;10.18;100.00;101729.13;4975859;28;20137;-76
2022/09/21 03:54:07;;;;;;;4.50;3.38;;;;;;;10.28;100.00;101746.06;5004255;28;20101;-76
2022/09/21 03:56:32;;;;;;;4.60;3.08;;;;;;;10.25;100.00;101743.66;4963964;28;20045;-76
2022/09/21 03:58:58;;;;;;;4.60;3.22;;;;;;;10.17;100.00;101740.88;5001359;28;20061;-76
2022/09/21 04:01:24;;;;;;;4.72;3.30;;;;;;;10.08;100.00;101730.03;4974547;28;20054;-77
2022/09/21 04:03:49;;;;;;;6.18;3.58;;;;;;;9.94;100.00;101722.44;5002721;28;20042;-76
2022/09/21 04:06:15;;;;;;;4.78;2.83;;;;;;;9.71;100.00;101696.94;4973448;28;20037;-76
2022/09/21 04:08:41;;;;;;;5.45;3.03;;;;;;;9.94;100.00;101735.88;4989767;28;20502;-77
2022/09/21 04:11:11;;;;;;;6.32;3.30;;;;;;;9.97;100.00;101740.09;4980867;28;20037;-76
2022/09/21 04:13:36;;;;;;;5.55;3.28;;;;;;;10.01;100.00;101742.34;5007895;28;20045;-76
2022/09/21 04:16:02;;;;;;;9.93;3.78;;;;;;;10.03;100.00;101724.25;4994746;28;20025;-76
2022/09/21 04:18:28;;;;;;;4.88;3.38;;;;;;;10.09;100.00;101725.50;4975111;28;20038;-76
2022/09/21 04:20:53;;;;;;;5.07;3.35;;;;;;;10.15;100.00;101724.03;4965005;28;20061;-76
2022/09/21 04:23:19;;;;;;;6.47;3.20;;;;;;;10.19;100.00;101720.91;4983401;28;20041;-76
2022/09/21 04:25:46;;;;;;;5.95;3.92;;;;;;;10.33;100.00;101723.13;4987300;28;20042;-76
2022/09/21 04:28:14;;;;;;;4.32;3.20;;;;;;;10.43;100.00;101719.53;4991279;28;20484;-76
2022/09/21 04:30:40;;;;;;;5.00;3.45;;;;;;;10.45;100.00;101704.94;4969102;28;20042;-76
2022/09/21 04:33:05;;;;;;;6.57;3.53;;;;;;;10.60;100.00;101715.16;5005193;28;20045;-76
2022/09/21 04:35:31;;;;;;;4.30;3.38;;;;;;;10.67;100.00;101713.56;4987289;28;20432;-76
2022/09/21 04:37:57;;;;;;;6.43;3.42;;;;;;;10.73;100.00;101710.25;4987788;28;20037;-76
2022/09/21 04:40:22;;;;;;;7.15;3.55;;;;;;;10.79;100.00;101717.69;4991982;28;20026;-76
2022/09/21 04:42:52;;;;;;;7.22;3.55;;;;;;;10.82;100.00;101717.38;4973456;28;20036;-76
2022/09/21 04:45:19;;;;;;;5.35;3.30;;;;;;;10.78;100.00;101710.63;5007897;28;20018;-76
2022/09/21 04:47:44;;;;;;;5.07;3.47;;;;;;;10.71;100.00;101712.25;4993490;28;20042;-76
2022/09/21 04:50:10;;;;;;;4.13;3.03;;;;;;;10.63;100.00;101704.94;5010198;28;20038;-76
2022/09/21 04:52:36;;;;;;;6.03;3.58;;;;;;;10.50;100.00;101713.38;4979956;28;20050;-76
2022/09/21 04:55:01;;;;;;;4.65;3.17;;;;;;;10.37;100.00;101710.22;4995930;28;20026;-76
2022/09/21 04:57:27;;;;;;;7.28;3.20;;;;;;;10.27;100.00;101706.72;5010220;28;20428;-76
2022/09/21 04:59:52;;;;;;;6.22;2.83;;;;;;;10.09;100.00;101686.03;4989583;28;20051;-76
2022/09/21 05:02:18;;;;;;;5.38;3.13;;;;;;;10.14;100.00;101704.38;4992599;28;20050;-76
2022/09/21 05:04:44;;;;;;;6.55;3.20;;;;;;;10.10;100.00;101703.81;4983120;28;20038;-75
2022/09/21 05:07:09;;;;;;;6.15;3.42;;;;;;;9.96;100.00;101677.47;5005022;28;20021;-77
2022/09/21 05:12:19;;;;;;;4.57;3.20;;;;;;;10.15;100.00;101694.47;4996267;28;20038;-76
2022/09/21 05:14:45;;;;;;;8.55;3.50;;;;;;;10.27;100.00;101706.72;5008213;28;20605;-76
2022/09/21 05:17:11;;;;;;;4.82;3.55;;;;;;;10.30;100.00;101690.31;4995057;28;20052;-76
2022/09/21 05:19:37;;;;;;;6.28;3.20;;;;;;;10.49;100.00;101700.09;4977717;28;20049;-76
2022/09/21 05:22:02;;;;;;;5.85;3.60;;;;;;;10.59;100.00;101708.09;4980219;28;20038;-76
2022/09/21 05:24:31;;;;;;;5.15;3.40;;;;;;;10.63;100.00;101704.94;4991270;28;20038;-76
2022/09/21 05:26:56;;;;;;;4.25;3.05;;;;;;;10.63;100.00;101696.88;4978658;28;20495;-77
2022/09/21 05:29:22;;;;;;;5.85;3.35;;;;;;;10.62;100.00;101699.72;5014175;28;20854;-76
2022/09/21 05:31:53;;;;;;;5.38;3.38;;;;;;;10.55;100.00;101700.31;4974452;28;20042;-77
2022/09/21 05:34:45;;;;;;;4.93;3.20;;;;;;;10.49;100.00;101697.41;5011601;28;20427;-76
2022/09/21 05:37:34;;;;;;;5.68;3.13;;;;;;;10.36;100.00;101703.16;5013215;28;20119;-76
2022/09/21 05:40:00;;;;;;;5.32;3.15;;;;;;;10.23;100.00;101698.09;4990578;28;20026;-77
2022/09/21 05:42:26;;;;;;;6.05;3.58;;;;;;;10.22;100.00;101695.59;4994752;28;20044;-76
2022/09/21 05:44:54;;;;;;;5.90;3.17;;;;;;;10.20;100.00;101703.78;5005624;28;20046;-76
2022/09/21 05:47:45;;;;;;;9.77;3.47;;;;;;;10.20;100.00;101706.47;5010817;28;20488;-76
2022/09/21 05:50:40;;;;;;;5.33;3.47;;;;;;;10.18;100.00;101704.94;4972242;28;20049;-76
2022/09/21 05:53:20;;;;;;;5.50;2.95;;;;;;;10.17;100.00;101703.25;4975201;28;20128;-76
2022/09/21 05:55:52;;;;;;;7.13;3.50;;;;;;;10.13;100.00;101698.19;5005188;28;20149;-77
2022/09/21 05:58:21;;;;;;;6.70;3.80;;;;;;;10.09;100.00;101699.47;4988600;28;20072;-76
2022/09/21 06:01:00;;;;;;;7.07;3.47;;;;;;;10.06;100.00;101693.53;5007349;28;20088;-76
2022/09/21 06:03:31;;;;;;;4.53;2.90;;;;;;;9.96;100.00;101684.69;4989585;28;20038;-76
2022/09/21 06:05:57;;;;;;;5.53;3.67;;;;;;;9.87;100.00;101681.03;4989167;28;20128;-76
2022/09/21 06:08:24;;;;;;;5.82;3.78;;;;;;;9.79;100.00;101683.63;5008470;28;20037;-76
2022/09/21 06:10:52;;;;;;;9.18;3.60;;;;;;;9.73;100.00;101690.44;4989935;28;20046;-76
2022/09/21 06:13:17;;;;;;;4.80;3.22;;;;;;;9.57;100.00;101669.56;4984869;28;20121;-78
2022/09/21 06:15:43;;;;;;;7.97;3.90;;;;;;;9.65;100.00;101682.25;5001304;28;20491;-76
2022/09/21 06:18:09;;;;;;;8.20;3.55;;;;;;;9.67;100.00;101678.44;4971886;28;20034;-76
2022/09/21 06:20:38;;;;;;;6.18;3.85;;;;;;;9.66;100.00;101676.75;5004694;28;20037;-76
2022/09/21 06:23:09;;;;;;;5.40;3.55;;;;;;;9.71;100.00;101672.75;4990361;28;20103;-76
2022/09/21 06:25:35;;;;;;;5.05;3.33;;;;;;;9.68;100.00;101680.16;4989221;28;20064;-76
2022/09/21 06:28:05;;;;;;;5.47;3.90;;;;;;;9.66;100.00;101684.81;4987864;28;20069;-76
2022/09/21 06:30:33;;;;;;;8.23;3.30;;;;;;;9.61;100.00;101670.97;4985748;28;20480;-76
2022/09/21 06:33:04;;;;;;;7.78;3.25;;;;;;;9.65;100.00;101685.78;5007309;28;20525;-76
2022/09/21 06:35:31;;;;;;;6.47;3.58;;;;;;;9.65;100.00;101671.53;4991321;28;20038;-77
2022/09/21 06:37:58;;;;;;;5.32;3.50;;;;;;;9.68;100.00;101673.91;5006311;28;20546;-77
2022/09/21 06:40:24;;;;;;;6.55;3.40;;;;;;;9.63;100.00;101662.75;5005140;28;20030;-76
2022/09/21 06:42:55;;;;;;;5.40;3.50;;;;;;;9.72;100.00;101671.78;4987896;28;20036;-77
2022/09/21 06:45:20;;;;;;;6.75;3.45;;;;;;;9.74;100.00;101678.72;4972963;28;20042;-76
2022/09/21 06:47:47;;;;;;;9.00;3.63;;;;;;;9.78;100.00;101669.34;5005636;28;20265;-76
2022/09/21 06:50:13;;;;;;;6.22;3.40;;;;;;;9.80;100.00;101667.38;5008091;28;20503;-76
2022/09/21 06:52:39;;;;;;;5.55;3.78;;;;;;;9.83;100.00;101663.53;4991542;28;20042;-77
2022/09/21 06:55:05;;;;;;;4.82;3.60;;;;;;;9.91;100.00;101672.53;5012030;28;20465;-77
2022/09/21 06:57:31;;;;;;;5.35;3.17;;;;;;;10.00;100.00;101668.13;4994457;28;20542;-77
2022/09/21 06:59:56;;;;;;;5.32;3.55;;;;;;;10.10;100.00;101676.94;4996711;28;20033;-77
2022/09/21 07:02:22;;;;;;;6.90;4.07;;;;;;;10.17;100.00;101661.09;4973821;28;20045;-77
2022/09/21 07:04:48;;;;;;;5.15;3.50;;;;;;;10.22;100.00;101653.41;4982643;28;20099;-76
2022/09/21 07:07:14;;;;;;;5.70;3.05;;;;;;;10.43;100.00;101669.28;5006211;28;20042;-77
2022/09/21 07:09:39;;;;;;;6.50;3.53;;;;;;;10.57;100.00;101668.75;5008078;28;20056;-76
2022/09/21 07:12:06;;;;;;;5.93;3.85;;;;;;;10.75;100.00;101670.59;4992076;28;20060;-77
2022/09/21 07:14:32;;;;;;;5.57;3.40;;;;;;;10.90;100.00;101673.56;4991387;28;20029;-77
2022/09/21 07:16:58;;;;;;;6.15;3.60;;;;;;;11.07;100.00;101664.63;5008135;28;20495;-76
2022/09/21 07:19:24;;;;;;;5.18;3.35;;;;;;;11.30;100.00;101656.03;4970477;28;20029;-77
2022/09/21 07:21:53;;;;;;;5.82;3.78;;;;;;;11.55;100.00;101670.50;4971633;28;20050;-77
2022/09/21 07:24:18;;;;;;;6.68;3.40;;;;;;;11.77;100.00;101675.31;5007409;28;20030;-76
2022/09/21 07:26:44;;;;;;;5.80;3.72;;;;;;;11.98;100.00;101668.69;4977409;28;20061;-76
2022/09/21 07:29:10;;;;;;;4.72;3.20;;;;;;;12.14;100.00;101666.06;5003734;28;20029;-77
2022/09/21 07:31:36;;;;;;;6.28;3.42;;;;;;;12.33;100.00;101659.53;4971582;28;20041;-77
2022/09/21 07:34:02;;;;;;;4.85;3.20;;;;;;;12.51;100.00;101657.53;4989515;28;20484;-77
2022/09/21 07:36:28;;;;;;;4.35;2.88;;;;;;;12.77;100.00;101652.00;5006898;28;20096;-77
2022/09/21 07:38:53;;;;;;;5.25;3.30;;;;;;;12.90;100.00;101638.00;4987358;28;20057;-75
2022/09/21 07:41:19;;;;;;;5.47;3.05;;;;;;;13.20;100.00;101644.56;4990642;28;20483;-75
2022/09/21 07:43:47;;;;;;;6.10;3.28;;;;;;;13.48;100.00;101641.47;4974773;28;20026;-75
2022/09/21 07:46:14;;;;;;;5.95;3.50;;;;;;;13.83;99.62;101644.72;4988916;28;20030;-75
2022/09/21 07:48:40;;;;;;;5.97;3.35;;;;;;;14.20;96.44;101635.09;5005232;28;20057;-75
2022/09/21 07:51:08;;;;;;;6.13;3.30;;;;;;;14.49;94.48;101646.03;4986016;28;20045;-75
2022/09/21 07:53:36;;;;;;;5.47;3.05;;;;;;;14.69;92.48;101640.19;4986385;28;20076;-75
2022/09/21 07:56:07;;;;;;;5.22;2.80;;;;;;;14.86;90.06;101627.34;4997993;28;20038;-75
2022/09/21 08:01:19;;;;;;;5.68;3.50;;;;;;;15.18;86.71;101629.75;5004239;28;20373;-76
2022/09/21 08:03:48;;;;;;;5.35;3.45;;;;;;;15.36;85.52;101637.53;4974528;28;20498;-75
2022/09/21 08:06:13;;;;;;;3.88;2.40;;;;;;;15.43;84.24;101626.78;4993078;28;20036;-75
2022/09/21 08:08:40;;;;;;;5.70;3.08;;;;;;;15.48;83.50;101631.63;4994876;28;20359;-75
2022/09/21 08:11:06;;;;;;;4.15;2.58;;;;;;;15.79;81.97;101631.47;5006873;28;20045;-75
2022/09/21 08:13:32;;;;;;;5.53;3.50;;;;;;;16.46;79.95;101622.22;4975559;28;20030;-75
2022/09/21 08:15:59;;;;;;;3.03;2.50;;;;;;;17.79;72.12;101626.78;4976899;28;20030;-76
2022/09/21 08:18:24;;;;;;;3.03;2.33;;;;;;;17.99;70.82;101620.59;4988524;28;20130;-75
2022/09/21 08:20:54;;;;;;;7.68;2.92;;;;;;;18.36;69.00;101612.94;5005119;28;20085;-75
2022/09/21 08:23:20;;;;;;;3.72;2.60;;;;;;;18.94;66.02;101615.94;4992924;28;20428;-75
2022/09/21 08:25:46;;;;;;;6.97;3.00;;;;;;;19.42;66.17;101612.09;4986803;28;20033;-75
2022/09/21 08:28:11;;;;;;;5.68;2.50;;;;;;;20.37;61.94;101615.91;5007310;28;20473;-75
2022/09/21 08:30:37;;;;;;;3.67;2.60;;;;;;;20.83;59.15;101608.47;5005688;28;20038;-74
2022/09/21 08:33:03;;;;;;;3.10;2.20;;;;;;;20.29;59.21;101607.97;5004475;28;20034;-79
2022/09/21 08:35:32;;;;;;;6.93;3.08;;;;;;;19.68;60.92;101609.31;4965146;28;20048;-78
2022/09/21 08:37:58;;;;;;;5.30;2.70;;;;;;;19.88;60.57;101589.31;5008253;28;20033;-78
2022/09/21 08:40:23;;;;;;;3.67;2.60;;;;;;;20.28;58.28;101594.56;4990741;28;20022;-79
2022/09/21 08:42:59;;;;;;;3.10;2.47;;;;;;;20.10;58.62;101587.94;5003436;28;20037;-78
2022/09/21 08:45:31;;;;;;;4.13;2.35;;;;;;;20.98;56.48;101600.75;5007228;28;20038;-78
2022/09/21 08:47:58;;;;;;;3.72;2.90;;;;;;;21.45;56.39;101606.63;4985790;28;20030;-80
2022/09/21 08:50:38;;;;;;;3.95;2.40;;;;;;;21.58;53.48;101594.69;4990028;28;20038;-78
2022/09/21 08:53:11;;;;;;;5.97;2.33;;;;;;;20.57;56.98;101588.50;5006777;28;20069;-80
2022/09/21 08:55:37;;;;;;;3.03;1.75;;;;;;;20.19;58.24;101596.69;4990142;28;20034;-79
2022/09/21 08:58:02;;;;;;;3.08;2.10;;;;;;;19.62;58.93;101585.59;5009471;28;20113;-79
2022/09/21 09:00:33;;;;;;;4.10;2.28;;;;;;;19.41;61.49;101602.25;4992921;28;20033;-82
2022/09/21 09:03:34;;;;;;;6.25;2.75;;;;;;;19.36;63.00;101602.06;5002423;28;20495;-81
2022/09/21 09:06:06;;;;;;;3.00;2.30;;;;;;;19.40;61.69;101597.88;4951181;28;20038;-79
2022/09/21 09:08:54;;;;;;;2.60;1.70;;;;;;;19.27;61.85;101583.19;4974467;28;20400;-77
2022/09/21 09:11:29;;;;;;;4.55;2.65;;;;;;;19.06;64.03;101602.53;4997853;28;20041;-77
2022/09/21 09:14:15;;;;;;;3.88;2.75;;;;;;;18.95;64.01;101593.13;5005183;28;20095;-77
2022/09/21 09:17:19;;;;;;;3.40;2.28;;;;;;;18.58;65.33;101591.84;5004199;28;20084;-78
2022/09/21 09:20:00;;;;;;;3.88;2.67;;;;;;;18.42;66.22;101602.06;5004156;28;20036;-78
2022/09/21 09:22:30;;;;;;;5.13;2.40;;;;;;;18.86;64.75;101606.09;5001656;28;20034;-79
2022/09/21 09:25:05;;;;;;;6.15;2.60;;;;;;;19.09;63.42;101605.66;5004572;28;20513;-77
2022/09/21 09:27:37;;;;;;;2.97;2.15;;;;;;;19.45;62.71;101604.34;5008616;28;20037;-76
2022/09/21 09:30:17;;;;;;;3.88;2.50;;;;;;;19.69;62.79;101608.28;4994434;28;20061;-77
2022/09/21 09:32:57;;;;;;;5.22;2.42;;;;;;;19.78;62.21;101600.69;4997751;28;20033;-77
2022/09/21 09:35:32;;;;;;;4.95;2.38;;;;;;;19.69;62.65;101607.47;5007074;28;20026;-77
2022/09/21 09:38:22;;;;;;;3.53;2.55;;;;;;;19.49;63.12;101605.59;5005327;28;20045;-78
2022/09/21 09:41:07;;;;;;;3.47;2.05;;;;;;;19.26;62.01;101597.88;5008424;28;20056;-78
2022/09/21 09:43:51;;;;;;;4.75;2.33;;;;;;;18.83;64.56;101602.97;5005390;28;20042;-77
2022/09/21 09:46:27;;;;;;;3.88;2.50;;;;;;;18.81;65.11;101602.31;5008913;28;20041;-80
2022/09/21 09:48:59;;;;;;;3.00;2.10;;;;;;;18.79;65.20;101607.16;5007572;28;20377;-77
2022/09/21 09:51:25;;;;;;;4.15;2.40;;;;;;;18.53;66.35;101603.34;5009101;28;20030;-79
2022/09/21 09:53:55;;;;;;;3.80;3.08;;;;;;;18.16;67.73;101599.31;5012463;28;20040;-78
2022/09/21 09:56:22;;;;;;;3.63;2.42;;;;;;;17.57;70.39;101598.84;5002017;28;20113;-79
2022/09/21 09:59:05;;;;;;;4.07;2.20;;;;;;;17.10;72.25;101589.56;4991208;28;20050;-79
2022/09/21 10:01:46;;;;;;;4.15;2.60;;;;;;;16.74;74.24;101586.13;5008196;28;20040;-79
2022/09/21 10:04:16;;;;;;;4.18;2.90;;;;;;;16.58;75.65;101571.78;4986985;28;20392;-79
2022/09/21 10:06:42;;;;;;;5.40;2.70;;;;;;;16.82;74.95;101583.28;5009825;28;20036;-79
2022/09/21 10:09:33;;;;;;;3.72;2.75;;;;;;;17.12;75.17;101589.34;4993921;28;20473;-79
2022/09/21 10:12:01;;;;;;;3.78;2.83;;;;;;;17.74;72.42;101584.91;4984831;28;20099;-80
2022/09/21 10:14:30;;;;;;;4.05;2.40;;;;;;;18.67;69.29;101585.94;4967931;28;20071;-77
2022/09/21 10:17:03;;;;;;;4.43;2.30;;;;;;;18.95;67.27;101586.84;5009683;28;20057;-76
2022/09/21 10:19:31;;;;;;;3.13;2.70;;;;;;;19.40;65.75;101592.41;4979099;28;20033;-76
2022/09/21 10:21:58;;;;;;;3.95;2.60;;;;;;;20.01;63.47;101589.25;5008133;28;20073;-76
2022/09/21 10:24:25;;;;;;;3.33;2.50;;;;;;;20.20;62.08;101576.53;5008947;28;20383;-76
2022/09/21 10:26:54;;;;;;;2.63;2.38;;;;;;;20.04;62.21;101571.59;5007565;28;20064;-77
2022/09/21 10:29:24;;;;;;;2.85;2.53;;;;;;;20.26;61.33;101575.66;5004460;28;20171;-76
2022/09/21 10:31:56;;;;;;;3.75;2.40;;;;;;;20.41;61.31;101564.41;5017642;28;20037;-77
2022/09/21 10:34:23;;;;;;;3.70;2.50;;;;;;;21.73;58.73;101570.50;4988569;28;20061;-77
2022/09/21 10:36:51;;;;;;;5.78;2.60;;;;;;;23.65;52.51;101568.34;4992439;28;21679;-77
2022/09/21 10:39:38;;;;;;;2.90;2.30;;;;;;;23.68;49.79;101565.16;4981436;28;20476;-77
2022/09/21 10:42:06;;;;;;;5.07;2.40;;;;;;;22.38;53.00;101555.25;5003325;28;20050;-77
2022/09/21 10:44:36;;;;;;;3.80;2.08;;;;;;;22.33;54.30;101557.88;4991123;28;20420;-78
2022/09/21 10:47:22;;;;;;;5.22;2.70;;;;;;;24.01;50.23;101552.63;5006582;28;20070;-77
2022/09/21 10:49:51;;;;;;;3.63;2.30;;;;;;;25.53;44.94;101529.66;5001558;28;20089;-79
2022/09/21 10:52:19;;;;;;;2.45;2.20;;;;;;;28.11;40.39;101535.63;4994301;28;20033;-78
2022/09/21 10:54:47;;;;;;;3.05;2.30;;;;;;;29.83;36.30;101543.03;5005271;28;20037;-78
2022/09/21 10:57:16;;;;;;;4.43;1.90;;;;;;;30.40;34.72;101546.25;4976300;28;20049;-77
2022/09/21 10:59:42;;;;;;;3.08;2.20;;;;;;;30.00;35.86;101543.47;4989059;28;20060;-78
2022/09/21 11:02:28;;;;;;;3.45;2.22;;;;;;;29.13;35.27;101543.03;4986602;28;20026;-78
2022/09/21 11:05:03;;;;;;;2.03;1.63;;;;;;;26.64;39.80;101536.59;5023055;28;20837;-78
2022/09/21 11:07:32;;;;;;;2.40;1.77;;;;;;;25.57;42.58;101519.81;4988757;28;20040;-78
2022/09/21 11:10:18;;;;;;;3.53;2.05;;;;;;;24.87;45.37;101538.66;5006344;28;20396;-78
2022/09/21 11:12:52;;;;;;;4.13;2.08;;;;;;;27.19;39.54;101519.56;4990756;28;20033;-77
2022/09/21 11:15:29;;;;;;;3.50;1.80;;;;;;;27.59;38.33;101495.97;5007218;28;20443;-77
2022/09/21 11:18:07;;;;;;;3.28;1.83;;;;;;;29.09;35.96;101511.50;5005519;28;20066;-78
2022/09/21 11:20:45;;;;;;;2.30;1.90;;;;;;;27.54;37.58;101495.94;5002467;28;20469;-77
2022/09/21 11:23:46;;;;;;;3.92;2.03;;;;;;;25.96;40.86;101505.91;5008729;28;20025;-78
2022/09/21 11:26:36;;;;;;;2.10;1.60;;;;;;;24.63;43.49;101512.47;5027195;28;20057;-77
2022/09/21 11:29:11;;;;;;;5.18;2.92;;;;;;;26.36;40.64;101490.81;4985990;28;20038;-78
2022/09/21 11:32:03;;;;;;;2.60;2.20;;;;;;;27.51;38.87;101510.31;5007033;28;20108;-78
2022/09/21 11:35:10;;;;;;;4.68;1.90;;;;;;;27.70;37.71;101507.03;5006536;28;20044;-78
2022/09/21 11:38:01;;;;;;;3.22;2.30;;;;;;;27.87;37.96;101499.38;5019190;28;20264;-78
2022/09/21 11:40:45;;;;;;;2.55;1.88;;;;;;;28.70;35.88;101499.09;5004531;28;20467;-78
2022/09/21 11:43:51;;;;;;;4.30;2.65;;;;;;;28.87;34.98;101487.72;5002796;28;20046;-78